Historique des mesures à Cassis (13260), France
Quotidien Résumé Juin 20, 2021 Unités:  Métrique/US    US   Métrique
Quotidien Hebdomadaire Mensuel Annuel
  Maximum: Minimum: Moyenne:
Température: 72.3 °F /  22.4 °C 64 °F /  17.8 °C 67.1 °F /  19.5 °C
Point de rosée: 59.7 °F /  15.4 °C 56.5 °F /  13.6 °C 57.9 °F /  14.4 °C
Humidité: 81% 62% 73%
Vitesse du vent: 5.8mph /  9.4km/h - 0.6mph /  1km/h
Rafales: 9.8mph /  15.8km/h - -
Vent- - SE
Pression: 30.3 in /  1024.8 hPa 30 in /  1017.4 hPa -
Précipitations: 0 in /  0.0 mm    
Historical Graphs
 
 
Mesures pour : Juin 20, 2021
Heure Temperature Point de rosée Pression Vent Vitesse du vent Rafales Humidité Pluie (par heure)
00:11 64.2 °F /  17.9 °C 56.5 °F /  13.6 °C 30.3in /  1024.8hPa Calm   2mph /  3.2km/h 76% 0in /  0.0mm
01:11 64.2 °F /  17.9 °C 56.5 °F /  13.6 °C 30.3in /  1024.4hPa ESE 2.5mph /  4km/h 2.5mph /  4km/h 76% 0in /  0.0mm
02:11 64.2 °F /  17.9 °C 57.2 °F /  14 °C 30.2in /  1024.0hPa Calm   2.2mph /  3.6km/h 78% 0in /  0.0mm
03:11 64.2 °F /  17.9 °C 57.6 °F /  14.2 °C 30.2in /  1023.8hPa Calm     79% 0in /  0.0mm
04:11 64.2 °F /  17.9 °C 57.9 °F /  14.4 °C 30.2in /  1023.3hPa Calm   1.1mph /  1.8km/h 80% 0in /  0.0mm
05:11 64 °F /  17.8 °C 58.1 °F /  14.5 °C 30.2in /  1023.0hPa Calm     81% 0in /  0.0mm
06:11 64 °F /  17.8 °C 58.1 °F /  14.5 °C 30.2in /  1022.8hPa Calm   2.7mph /  4.3km/h 81% 0in /  0.0mm
07:11 64.2 °F /  17.9 °C 57.9 °F /  14.4 °C 30.2in /  1022.9hPa Calm   2.2mph /  3.6km/h 80% 0in /  0.0mm
08:11 64.2 °F /  17.9 °C 57.9 °F /  14.4 °C 30.2in /  1022.7hPa Calm   3.1mph /  5km/h 80% 0in /  0.0mm
09:11 65.7 °F /  18.7 °C 58.3 °F /  14.6 °C 30.2in /  1023.1hPa Calm   0.9mph /  1.4km/h 77% 0in /  0.0mm
10:11 68.2 °F /  20.1 °C 59.2 °F /  15.1 °C 30.2in /  1023.3hPa ENE 2.7mph /  4.3km/h 5.2mph /  8.3km/h 73% 0in /  0.0mm
11:11 69.6 °F /  20.9 °C 59.4 °F /  15.2 °C 30.2in /  1023.0hPa SSW 5.8mph /  9.4km/h 5.8mph /  9.4km/h 70% 0in /  0.0mm
12:11 71.2 °F /  21.8 °C 59.7 °F /  15.4 °C 30.2in /  1022.7hPa Calm   4.9mph /  7.9km/h 67% 0in /  0.0mm
13:11 72.3 °F /  22.4 °C 59.4 °F /  15.2 °C 30.2in /  1021.8hPa SE 1.6mph /  2.5km/h 6.3mph /  10.1km/h 64% 0in /  0.0mm
14:11 72.1 °F /  22.3 °C 58.5 °F /  14.7 °C 30.2in /  1021.3hPa Calm   4mph /  6.5km/h 62% 0in /  0.0mm
15:11 71.8 °F /  22.1 °C 58.5 °F /  14.7 °C 30.1in /  1020.5hPa Calm   6mph /  9.7km/h 63% 0in /  0.0mm
16:11 70.5 °F /  21.4 °C 58.1 °F /  14.5 °C 30.1in /  1020.0hPa Calm   4.9mph /  7.9km/h 65% 0in /  0.0mm
17:11 69.4 °F /  20.8 °C 57.9 °F /  14.4 °C 30.1in /  1019.3hPa Calm   8.9mph /  14.4km/h 67% 0in /  0.0mm
18:11 68.2 °F /  20.1 °C 57.7 °F /  14.3 °C 30.1in /  1018.7hPa Calm   4.7mph /  7.6km/h 69% 0in /  0.0mm
19:11 67.1 °F /  19.5 °C 57 °F /  13.9 °C 30.1in /  1018.1hPa Calm   9.8mph /  15.8km/h 70% 0in /  0.0mm
20:11 66.7 °F /  19.3 °C 57.4 °F /  14.1 °C 30.1in /  1018.4hPa SE 1.8mph /  2.9km/h 4.5mph /  7.2km/h 72% 0in /  0.0mm
21:11 66.7 °F /  19.3 °C 57.7 °F /  14.3 °C 30.1in /  1018.4hPa Calm   3.1mph /  5km/h 73% 0in /  0.0mm
22:11 66.4 °F /  19.1 °C 57.7 °F /  14.3 °C 30.1in /  1017.7hPa Calm   3.4mph /  5.4km/h 74% 0in /  0.0mm
23:11 65.3 °F /  18.5 °C 57.2 °F /  14 °C 30in /  1017.4hPa Calm   4mph /  6.5km/h 75% 0in /  0.0mm
Observations météo à CASSIS
WU-History script by Weather Underground - 2 mb